Chiseldon, United Kingdom
Current Conditions -  °F | °C
As of 9:19 PM on Friday 28 Nov 2014 (Local Time) from EGVA Reporting Station
Light Rain Light Rain  
Wind Chill: 50°   Ceiling: 5500
Heat Index: 50°   Visibility: 6mi
Dew Point: 48°   Wind: 9mph
Humidity: 94%   Direction: 60°ENE
Pressure: 29.7"   Gusts: NA
Location:  51.52°N, 1.73°W
Report Text: EGVA 282119Z AUTO 06008KT 9999 -RA SCT008 SCT012 BKN055 OVC085 10/09 A2970 RMK AO2 RAB2106DZB2103E2106 $
Loading
Personal Weather Stations






























Interactive Weather Map New forecast layout! Learn more

10-Day Weather Forecast

Advertisements
Track Severe Weather on mobile